Terminal Aerodrome Forecast
Issued by NWS

Home | Current Version | Previous Version | Text Only | Print | Product List | Glossary On
Versions: 1 2 3 4 5 6 7 8 9 10 11 12 13 14 15 16 17 18 19 20 21 22 23 24 25 26 27 28 29 30 31 32 33 34 35 36 37 38 39 40 41 42 43 44 45 46 47 48 49 50
000
FTUS44 KHGX 251737
TAFSGR
TAF
KSGR 251737Z 2518/2618 32009KT P6SM SKC
     FM252300 VRB03KT P6SM FEW250
     FM260900 14003KT 3SM BR SCT010
      TEMPO 2610/2613 2SM BR SCT005
     FM261400 15008KT P6SM SCT025
     FM261600 17009G17KT P6SM BKN022=

USA.gov is the U.S. government's official web portal to all federal, state and local government web resources and services.